createdAt,value
2022-10-16T00:01:28.928Z,1.40
2022-10-16T00:03:57.844Z,1.10
2022-10-16T00:06:27.136Z,1.13
2022-10-16T00:08:56.004Z,1.00
2022-10-16T00:11:26.279Z,1.10
2022-10-16T00:13:59.299Z,1.20
2022-10-16T00:16:28.387Z,1.05
2022-10-16T00:18:56.633Z,1.30
2022-10-16T00:21:28.027Z,1.30
2022-10-16T00:24:00.195Z,1.30
2022-10-16T00:26:30.301Z,1.25
2022-10-16T00:29:00.245Z,1.13
2022-10-16T00:31:29.138Z,1.30
2022-10-16T00:33:57.733Z,1.02
2022-10-16T00:36:27.632Z,1.30
2022-10-16T00:38:57.270Z,1.13
2022-10-16T00:41:27.798Z,1.20
2022-10-16T00:43:58.157Z,1.20
2022-10-16T00:46:31.362Z,1.10
2022-10-16T00:49:04.777Z,1.45
2022-10-16T00:51:35.497Z,1.30
2022-10-16T00:54:06.163Z,1.27
2022-10-16T00:56:35.478Z,1.40
2022-10-16T00:59:10.218Z,1.20
2022-10-16T01:01:40.191Z,1.30
2022-10-16T01:04:08.320Z,1.50
2022-10-16T01:06:43.810Z,1.45
2022-10-16T01:09:20.345Z,1.40
2022-10-16T01:12:00.815Z,1.45
2022-10-16T01:14:36.480Z,1.23
2022-10-16T01:17:12.837Z,1.30
2022-10-16T01:20:11.905Z,1.40
2022-10-16T01:22:50.848Z,1.58
2022-10-16T01:25:38.998Z,1.38
2022-10-16T01:28:14.210Z,1.20
2022-10-16T01:30:44.142Z,1.50
2022-10-16T01:33:18.276Z,1.40
2022-10-16T01:35:50.602Z,1.40
2022-10-16T01:38:23.586Z,1.50
2022-10-16T01:40:57.362Z,1.60
2022-10-16T01:43:31.104Z,1.50
2022-10-16T01:48:28.133Z,1.42
2022-10-16T01:51:01.124Z,1.70
2022-10-16T01:53:30.556Z,1.65
2022-10-16T01:56:01.016Z,1.90
2022-10-16T01:58:35.835Z,1.90
2022-10-16T02:01:05.287Z,1.90
2022-10-16T02:03:35.480Z,1.98
2022-10-16T02:06:03.812Z,1.95
2022-10-16T02:08:34.315Z,1.90
2022-10-16T02:11:03.322Z,1.80
2022-10-16T02:13:38.249Z,1.80
2022-10-16T02:16:06.992Z,1.70
2022-10-16T02:18:35.195Z,2.13
2022-10-16T02:21:09.352Z,2.03
2022-10-16T02:23:58.334Z,2.30
2022-10-16T02:26:33.152Z,2.03
2022-10-16T02:29:06.920Z,2.10
2022-10-16T02:31:40.688Z,1.98
2022-10-16T02:34:12.723Z,2.20
2022-10-16T02:36:43.130Z,2.00
2022-10-16T02:39:12.731Z,2.55
2022-10-16T02:41:41.048Z,2.47
2022-10-16T02:44:10.723Z,2.63
2022-10-16T02:46:39.474Z,2.40
2022-10-16T02:49:07.710Z,2.47
2022-10-16T02:51:35.844Z,2.65
2022-10-16T02:54:04.317Z,2.88
2022-10-16T02:56:32.748Z,2.63
2022-10-16T02:59:00.870Z,2.30
2022-10-16T03:01:31.001Z,2.40
2022-10-16T03:03:59.360Z,2.70
2022-10-16T03:06:27.505Z,2.42
2022-10-16T03:08:55.593Z,2.70
2022-10-16T03:11:23.945Z,2.58
2022-10-16T03:13:52.150Z,2.60
2022-10-16T03:16:20.232Z,2.63
2022-10-16T03:18:52.222Z,2.67
2022-10-16T03:21:20.633Z,2.55
2022-10-16T03:23:48.998Z,2.85
2022-10-16T03:26:17.301Z,2.47
2022-10-16T03:28:45.548Z,2.47
2022-10-16T03:31:13.712Z,2.60
2022-10-16T03:33:41.983Z,2.95
2022-10-16T03:36:11.542Z,2.80
2022-10-16T03:38:39.696Z,2.88
2022-10-16T03:41:08.823Z,2.85
2022-10-16T03:43:37.320Z,2.80
2022-10-16T03:46:05.438Z,2.83
2022-10-16T03:48:33.909Z,3.00
2022-10-16T03:51:02.296Z,2.70
2022-10-16T03:53:32.210Z,3.13
2022-10-16T03:56:00.608Z,2.92
2022-10-16T03:58:28.728Z,2.67
2022-10-16T04:00:57.199Z,2.50
2022-10-16T04:03:25.726Z,2.47
2022-10-16T04:05:53.894Z,2.60
2022-10-16T04:08:22.307Z,2.28
2022-10-16T04:10:52.162Z,2.20
2022-10-16T04:15:53.662Z,2.67
2022-10-16T04:18:21.825Z,2.58
2022-10-16T04:20:49.907Z,2.40
2022-10-16T04:23:18.208Z,2.20
2022-10-16T04:25:46.588Z,2.65
2022-10-16T04:28:16.127Z,2.95
2022-10-16T04:30:44.532Z,2.30
2022-10-16T04:33:13.907Z,2.47
2022-10-16T04:35:42.165Z,2.17
2022-10-16T04:38:10.540Z,2.40
2022-10-16T04:40:38.945Z,2.40
2022-10-16T04:43:08.429Z,2.53
2022-10-16T04:45:37.967Z,2.45
2022-10-16T04:48:06.416Z,2.30
2022-10-16T04:50:34.549Z,2.35
2022-10-16T04:53:02.774Z,2.70
2022-10-16T04:55:31.051Z,2.53
2022-10-16T04:57:59.119Z,2.60
2022-10-16T05:00:27.543Z,2.75
2022-10-16T05:02:58.172Z,2.50
2022-10-16T05:05:26.346Z,2.72
2022-10-16T05:07:54.722Z,2.40
2022-10-16T05:10:23.020Z,2.80
2022-10-16T05:12:52.240Z,2.53
2022-10-16T05:15:20.618Z,2.65
2022-10-16T05:17:49.062Z,2.55
2022-10-16T05:20:18.503Z,2.88
2022-10-16T05:22:46.790Z,2.50
2022-10-16T05:25:14.976Z,2.90
2022-10-16T05:27:43.236Z,2.80
2022-10-16T05:30:12.629Z,2.78
2022-10-16T05:32:41.182Z,2.85
2022-10-16T05:35:12.518Z,2.45
2022-10-16T05:37:42.935Z,2.60
2022-10-16T05:40:12.103Z,2.78
2022-10-16T05:42:40.451Z,2.50
2022-10-16T05:45:11.530Z,2.70
2022-10-16T05:47:40.133Z,2.50
2022-10-16T05:50:08.996Z,2.60
2022-10-16T05:52:37.204Z,2.78
2022-10-16T05:55:07.592Z,2.70
2022-10-16T05:57:35.799Z,2.85
2022-10-16T06:00:04.766Z,2.78
2022-10-16T06:02:32.837Z,3.00
2022-10-16T06:05:01.070Z,3.40
2022-10-16T06:07:29.702Z,2.83
2022-10-16T06:09:58.018Z,2.85
2022-10-16T06:12:29.318Z,2.97
2022-10-16T06:14:57.677Z,2.97
2022-10-16T06:17:26.067Z,2.90
2022-10-16T06:19:54.536Z,2.90
2022-10-16T06:22:22.967Z,2.83
2022-10-16T06:24:51.159Z,2.95
2022-10-16T06:27:19.564Z,3.20
2022-10-16T06:29:49.467Z,3.00
2022-10-16T06:32:18.054Z,2.80
2022-10-16T06:34:46.425Z,3.13
2022-10-16T06:37:14.825Z,2.97
2022-10-16T06:39:43.012Z,3.03
2022-10-16T06:42:11.358Z,3.05
2022-10-16T06:44:39.495Z,2.78
2022-10-16T06:47:09.046Z,2.83
2022-10-16T06:49:37.302Z,3.00
2022-10-16T06:52:06.145Z,3.20
2022-10-16T06:54:42.070Z,3.03
2022-10-16T06:57:10.869Z,2.70
2022-10-16T06:59:39.056Z,2.70
2022-10-16T07:02:09.152Z,2.63
2022-10-16T07:04:38.449Z,2.72
2022-10-16T07:07:08.674Z,2.70
2022-10-16T07:09:37.837Z,2.85
2022-10-16T07:12:06.751Z,2.90
2022-10-16T07:14:34.939Z,2.92
2022-10-16T07:17:03.289Z,3.25
2022-10-16T07:19:34.423Z,3.20
2022-10-16T07:22:04.119Z,3.53
2022-10-16T07:24:32.390Z,2.78
2022-10-16T07:27:00.753Z,2.95
2022-10-16T07:29:29.028Z,2.65
2022-10-16T07:31:57.458Z,2.08
2022-10-16T07:34:27.123Z,2.25
2022-10-16T07:36:56.803Z,1.98
2022-10-16T07:39:25.205Z,2.30
2022-10-16T07:41:53.602Z,2.10
2022-10-16T07:44:21.734Z,1.90
2022-10-16T07:46:50.092Z,1.85
2022-10-16T07:49:18.271Z,1.60
2022-10-16T07:51:46.464Z,1.58
2022-10-16T07:54:16.369Z,1.42
2022-10-16T07:56:44.600Z,1.55
2022-10-16T07:59:13.068Z,1.83
2022-10-16T08:01:43.072Z,1.67
2022-10-16T08:04:12.548Z,1.63
2022-10-16T08:06:41.869Z,1.77
2022-10-16T08:09:10.895Z,1.60
2022-10-16T08:11:40.597Z,1.55
2022-10-16T08:14:08.734Z,1.55
2022-10-16T08:16:37.033Z,1.60
2022-10-16T08:19:05.526Z,1.50
2022-10-16T08:21:33.785Z,1.55
2022-10-16T08:24:02.274Z,1.40
2022-10-16T08:26:30.456Z,1.58
2022-10-16T08:29:00.089Z,1.60
2022-10-16T08:31:28.567Z,1.85
2022-10-16T08:33:56.912Z,1.15
2022-10-16T08:36:25.063Z,1.80
2022-10-16T08:38:55.264Z,1.75
2022-10-16T08:41:40.734Z,1.42
2022-10-16T08:44:37.161Z,1.30
2022-10-16T08:47:15.427Z,1.50
2022-10-16T08:49:52.568Z,1.73
2022-10-16T08:52:20.931Z,1.60
2022-10-16T08:54:52.617Z,1.70
2022-10-16T08:57:24.684Z,2.00
2022-10-16T08:59:55.770Z,1.50
2022-10-16T09:02:30.593Z,1.40
2022-10-16T09:05:16.343Z,1.70
2022-10-16T09:07:51.014Z,1.40
2022-10-16T09:10:33.543Z,1.40
2022-10-16T09:13:11.865Z,1.40
2022-10-16T09:15:50.068Z,1.60
2022-10-16T09:18:29.980Z,1.58
2022-10-16T09:21:07.646Z,1.70
2022-10-16T09:23:38.623Z,1.40
2022-10-16T09:26:11.650Z,1.83
2022-10-16T09:28:40.357Z,1.60
2022-10-16T09:31:17.542Z,1.50
2022-10-16T09:33:49.509Z,1.40
2022-10-16T09:36:17.742Z,1.30
2022-10-16T09:38:46.086Z,1.58
2022-10-16T09:41:20.265Z,1.48
2022-10-16T09:43:56.119Z,1.40
2022-10-16T09:46:30.309Z,1.27
2022-10-16T09:49:05.093Z,1.70
2022-10-16T09:51:46.552Z,1.38
2022-10-16T09:54:17.767Z,1.30
2022-10-16T09:56:50.365Z,1.50
2022-10-16T09:59:20.421Z,1.20
2022-10-16T10:01:53.102Z,1.15
2022-10-16T10:04:28.940Z,1.15
2022-10-16T10:07:06.465Z,1.25
2022-10-16T10:09:39.581Z,1.42
2022-10-16T10:12:11.232Z,1.33
2022-10-16T10:14:42.393Z,1.20
2022-10-16T10:17:21.134Z,1.55
2022-10-16T10:19:52.676Z,1.40
2022-10-16T10:22:47.070Z,1.25
2022-10-16T10:25:25.217Z,1.27
2022-10-16T10:28:26.977Z,1.30
2022-10-16T10:31:03.232Z,1.70
2022-10-16T10:33:43.655Z,1.40
2022-10-16T10:36:23.162Z,1.80
2022-10-16T10:38:56.252Z,1.20
2022-10-16T10:41:46.622Z,1.15
2022-10-16T10:44:24.121Z,1.50
2022-10-16T10:46:57.467Z,1.33
2022-10-16T10:52:35.549Z,1.70
2022-10-16T10:55:15.683Z,1.50
2022-10-16T10:57:55.379Z,1.63
2022-10-16T11:00:33.079Z,1.25
2022-10-16T11:03:15.833Z,1.40
2022-10-16T11:05:48.548Z,1.73
2022-10-16T11:08:22.877Z,1.63
2022-10-16T11:10:58.433Z,1.42
2022-10-16T11:13:34.301Z,1.40
2022-10-16T11:16:09.419Z,1.70
2022-10-16T11:18:47.670Z,1.40
2022-10-16T11:21:21.743Z,1.38
2022-10-16T11:23:57.018Z,1.20
2022-10-16T11:26:33.038Z,1.60
2022-10-16T11:29:03.919Z,1.00
2022-10-16T11:31:38.906Z,1.38
2022-10-16T11:34:18.120Z,1.10
2022-10-16T11:36:53.639Z,1.45
2022-10-16T11:39:24.977Z,1.20
2022-10-16T11:41:57.331Z,0.93
2022-10-16T11:44:49.802Z,1.00
2022-10-16T11:50:27.425Z,0.80
2022-10-16T11:53:03.758Z,1.00
2022-10-16T11:55:40.447Z,1.20
2022-10-16T11:58:22.156Z,1.00
2022-10-16T12:00:58.661Z,1.23
2022-10-16T12:03:33.630Z,1.00
2022-10-16T12:06:22.065Z,1.00
2022-10-16T12:08:52.445Z,0.80
2022-10-16T12:11:33.871Z,1.05
2022-10-16T12:14:57.326Z,0.80
2022-10-16T12:17:29.074Z,1.00
2022-10-16T12:20:02.937Z,0.80
2022-10-16T12:22:35.806Z,1.35
2022-10-16T12:25:07.511Z,1.15
2022-10-16T12:27:38.381Z,1.35
2022-10-16T12:30:09.429Z,1.00
2022-10-16T12:32:46.867Z,1.30
2022-10-16T12:35:22.965Z,1.20
2022-10-16T12:37:51.972Z,1.20
2022-10-16T12:40:30.950Z,1.40
2022-10-16T12:42:59.347Z,1.30
2022-10-16T12:45:32.344Z,1.30
2022-10-16T12:48:02.981Z,1.20
2022-10-16T12:50:36.664Z,1.40
2022-10-16T12:53:06.985Z,1.17
2022-10-16T12:55:54.391Z,1.20
2022-10-16T12:58:46.469Z,1.13
2022-10-16T13:01:29.199Z,1.00
2022-10-16T13:04:13.123Z,1.48
2022-10-16T13:06:52.281Z,1.10
2022-10-16T13:09:42.302Z,1.40
2022-10-16T13:12:24.642Z,1.30
2022-10-16T13:15:22.523Z,1.33
2022-10-16T13:18:00.057Z,1.10
2022-10-16T13:20:37.635Z,1.08
2022-10-16T13:23:16.823Z,1.10
2022-10-16T13:26:01.474Z,0.80
2022-10-16T13:28:34.287Z,1.15
2022-10-16T13:31:10.656Z,1.25
2022-10-16T13:33:41.816Z,1.10
2022-10-16T13:36:22.992Z,1.00
2022-10-16T13:39:01.918Z,1.00
2022-10-16T13:41:30.224Z,1.25
2022-10-16T13:44:00.050Z,1.00
2022-10-16T13:46:29.747Z,1.20
2022-10-16T13:49:05.353Z,1.02
2022-10-16T13:51:38.182Z,0.60
2022-10-16T13:54:06.468Z,0.50
2022-10-16T13:56:35.719Z,0.80
2022-10-16T13:59:15.263Z,0.52
2022-10-16T14:01:45.588Z,0.60
2022-10-16T14:04:16.061Z,0.63
2022-10-16T14:06:46.833Z,0.90
2022-10-16T14:09:23.951Z,0.77
2022-10-16T14:11:55.333Z,0.90
2022-10-16T14:14:25.488Z,1.10
2022-10-16T14:16:53.872Z,1.00
2022-10-16T14:19:25.418Z,1.17
2022-10-16T14:21:55.636Z,1.13
2022-10-16T14:24:33.518Z,1.20
2022-10-16T14:27:02.639Z,1.33
2022-10-16T14:29:33.308Z,1.38
2022-10-16T14:32:03.855Z,1.40
2022-10-16T14:34:34.652Z,1.30
2022-10-16T14:39:38.173Z,1.30
2022-10-16T14:42:06.690Z,1.10
2022-10-16T14:44:36.577Z,2.45
2022-10-16T14:47:15.444Z,2.78
2022-10-16T14:49:43.928Z,2.90
2022-10-16T14:52:13.382Z,2.47
2022-10-16T14:54:42.717Z,2.00
2022-10-16T14:57:19.997Z,1.30
2022-10-16T14:59:52.189Z,1.65
2022-10-16T15:02:27.735Z,1.92
2022-10-16T15:05:04.836Z,1.55
2022-10-16T15:07:33.588Z,1.50
2022-10-16T15:10:01.710Z,1.60
2022-10-16T15:12:29.865Z,1.50
2022-10-16T15:14:59.754Z,1.50
2022-10-16T15:17:28.259Z,1.60
2022-10-16T15:19:56.574Z,1.45
2022-10-16T15:22:25.164Z,1.52
2022-10-16T15:24:53.334Z,1.42
2022-10-16T15:27:21.479Z,1.42
2022-10-16T15:29:50.027Z,1.38
2022-10-16T15:32:19.746Z,1.40
2022-10-16T15:34:47.875Z,1.55
2022-10-16T15:37:16.261Z,1.17
2022-10-16T15:39:44.403Z,1.20
2022-10-16T15:42:12.642Z,1.40
2022-10-16T15:44:41.017Z,1.63
2022-10-16T15:47:10.517Z,1.45
2022-10-16T15:49:40.728Z,1.67
2022-10-16T15:52:09.499Z,1.42
2022-10-16T15:54:37.675Z,1.88
2022-10-16T15:57:05.955Z,1.98
2022-10-16T15:59:34.603Z,1.70
2022-10-16T16:02:02.993Z,1.67
2022-10-16T16:04:43.381Z,1.50
2022-10-16T16:07:14.010Z,1.77
2022-10-16T16:09:42.255Z,1.48
2022-10-16T16:12:10.457Z,1.13
2022-10-16T16:14:38.997Z,1.73
2022-10-16T16:17:07.219Z,2.38
2022-10-16T16:19:35.957Z,2.60
2022-10-16T16:22:08.150Z,2.90
2022-10-16T16:24:40.439Z,2.58
2022-10-16T16:27:09.022Z,3.03
2022-10-16T16:29:37.669Z,3.90
2022-10-16T16:32:06.083Z,4.43
2022-10-16T16:34:34.454Z,3.20
2022-10-16T16:37:02.695Z,6.63
2022-10-16T16:39:30.889Z,3.80
2022-10-16T16:42:00.777Z,3.25
2022-10-16T16:44:28.879Z,4.00
2022-10-16T16:46:57.453Z,4.43
2022-10-16T16:49:26.205Z,4.57
2022-10-16T16:51:55.524Z,3.00
2022-10-16T16:54:23.754Z,2.80
2022-10-16T16:56:52.384Z,3.05
2022-10-16T16:59:23.228Z,2.78
2022-10-16T17:01:56.733Z,2.30
2022-10-16T17:04:25.560Z,2.08
2022-10-16T17:06:55.090Z,2.40
2022-10-16T17:09:23.558Z,2.47
2022-10-16T17:11:52.264Z,2.55
2022-10-16T17:14:21.844Z,2.80
2022-10-16T17:16:50.145Z,2.42
2022-10-16T17:19:20.755Z,2.58
2022-10-16T17:21:51.080Z,2.47
2022-10-16T17:24:21.560Z,3.40
2022-10-16T17:26:50.249Z,2.83
2022-10-16T17:29:19.270Z,2.80
2022-10-16T17:31:50.581Z,2.70
2022-10-16T17:34:19.124Z,2.83
2022-10-16T17:36:47.923Z,3.50
2022-10-16T17:39:19.200Z,2.60
2022-10-16T17:41:48.427Z,2.35
2022-10-16T17:44:21.051Z,2.20
2022-10-16T17:46:52.571Z,2.72
2022-10-16T17:49:22.063Z,2.58
2022-10-16T17:51:52.632Z,2.70
2022-10-16T17:54:22.042Z,2.42
2022-10-16T17:56:50.405Z,2.63
2022-10-16T17:59:23.069Z,2.63
2022-10-16T18:01:53.509Z,2.50
2022-10-16T18:04:21.956Z,2.65
2022-10-16T18:06:50.198Z,2.65
2022-10-16T18:09:20.886Z,2.83
2022-10-16T18:11:52.576Z,3.03
2022-10-16T18:14:21.110Z,3.15
2022-10-16T18:19:20.542Z,3.80
2022-10-16T18:21:49.375Z,3.20
2022-10-16T18:24:18.051Z,3.70
2022-10-16T18:26:46.494Z,3.35
2022-10-16T18:29:14.929Z,3.70
2022-10-16T18:31:43.887Z,3.20
2022-10-16T18:34:12.340Z,2.90
2022-10-16T18:36:43.108Z,2.95
2022-10-16T18:39:12.724Z,3.10
2022-10-16T18:41:44.708Z,2.80
2022-10-16T18:44:14.144Z,3.08
2022-10-16T18:46:42.658Z,2.70
2022-10-16T18:49:11.378Z,2.95
2022-10-16T18:51:42.559Z,3.10
2022-10-16T18:54:13.255Z,3.05
2022-10-16T18:56:42.004Z,3.20
2022-10-16T18:59:11.055Z,3.45
2022-10-16T19:01:40.105Z,3.45
2022-10-16T19:04:09.920Z,4.20
2022-10-16T19:06:40.555Z,3.55
2022-10-16T19:09:10.770Z,3.35
2022-10-16T19:11:41.831Z,3.20
2022-10-16T19:14:10.497Z,3.58
2022-10-16T19:16:38.957Z,3.30
2022-10-16T19:19:08.882Z,3.00
2022-10-16T19:21:40.367Z,2.97
2022-10-16T19:24:13.739Z,3.20
2022-10-16T19:26:42.534Z,2.70
2022-10-16T19:29:12.302Z,3.20
2022-10-16T19:31:41.068Z,3.00
2022-10-16T19:34:09.946Z,3.40
2022-10-16T19:36:40.893Z,3.35
2022-10-16T19:39:14.532Z,3.63
2022-10-16T19:44:14.473Z,4.03
2022-10-16T19:46:43.061Z,4.20
2022-10-16T19:49:13.916Z,4.43
2022-10-16T19:51:42.104Z,4.93
2022-10-16T19:54:14.774Z,5.30
2022-10-16T19:56:43.854Z,5.38
2022-10-16T19:59:16.495Z,5.95
2022-10-16T20:01:44.878Z,6.38
2022-10-16T20:04:14.554Z,5.93
2022-10-16T20:06:42.857Z,6.72
2022-10-16T20:09:12.439Z,7.30
2022-10-16T20:11:40.776Z,6.93
2022-10-16T20:14:09.212Z,7.25
2022-10-16T20:16:37.570Z,7.57
2022-10-16T20:19:05.872Z,7.68
2022-10-16T20:21:37.055Z,8.45
2022-10-16T20:24:06.683Z,8.20
2022-10-16T20:26:37.019Z,9.00
2022-10-16T20:29:06.157Z,8.45
2022-10-16T20:31:35.666Z,8.35
2022-10-16T20:34:06.084Z,8.68
2022-10-16T20:36:34.375Z,8.63
2022-10-16T20:39:03.107Z,7.85
2022-10-16T20:41:31.524Z,8.98
2022-10-16T20:44:01.387Z,9.10
2022-10-16T20:46:30.265Z,8.85
2022-10-16T20:49:10.381Z,9.20
2022-10-16T20:51:45.806Z,9.00
2022-10-16T20:54:13.992Z,9.07
2022-10-16T20:56:42.571Z,9.55
2022-10-16T20:59:12.995Z,9.60
2022-10-16T21:01:42.017Z,9.00
2022-10-16T21:04:10.671Z,9.85
2022-10-16T21:06:40.811Z,10.02
2022-10-16T21:09:10.105Z,9.65
2022-10-16T21:11:39.049Z,10.43
2022-10-16T21:14:09.300Z,10.45
2022-10-16T21:16:39.274Z,10.65
2022-10-16T21:19:07.756Z,11.02
2022-10-16T21:21:39.206Z,10.38
2022-10-16T21:24:12.085Z,10.65
2022-10-16T21:26:43.510Z,10.23
2022-10-16T21:29:12.098Z,10.32
2022-10-16T21:31:41.894Z,9.63
2022-10-16T21:34:10.778Z,9.35
2022-10-16T21:36:41.272Z,9.63
2022-10-16T21:39:11.046Z,8.60
2022-10-16T21:41:39.638Z,9.05
2022-10-16T21:44:08.850Z,8.50
2022-10-16T21:46:38.866Z,8.57
2022-10-16T21:49:12.424Z,8.45
2022-10-16T21:51:43.565Z,8.23
2022-10-16T21:54:13.619Z,7.97
2022-10-16T21:56:41.800Z,8.90
2022-10-16T21:59:11.447Z,8.98
2022-10-16T22:01:39.991Z,8.80
2022-10-16T22:04:11.731Z,9.57
2022-10-16T22:06:41.036Z,8.52
2022-10-16T22:09:09.552Z,9.10
2022-10-16T22:11:38.912Z,9.63
2022-10-16T22:14:08.833Z,9.05
2022-10-16T22:16:37.717Z,9.38
2022-10-16T22:19:08.132Z,9.52
2022-10-16T22:21:39.807Z,10.20
2022-10-16T22:24:08.592Z,9.80
2022-10-16T22:26:37.464Z,11.15
2022-10-16T22:29:06.551Z,10.98
2022-10-16T22:31:35.513Z,10.95
2022-10-16T22:34:05.219Z,11.00
2022-10-16T22:36:34.386Z,10.88
2022-10-16T22:39:04.237Z,10.57
2022-10-16T22:41:32.977Z,11.27
2022-10-16T22:44:01.324Z,11.93
2022-10-16T22:46:31.311Z,11.57
2022-10-16T22:48:59.747Z,12.00
2022-10-16T22:51:29.057Z,11.35
2022-10-16T22:53:58.956Z,11.85
2022-10-16T22:56:28.774Z,11.23
2022-10-16T22:58:57.095Z,10.90
2022-10-16T23:01:28.575Z,11.27
2022-10-16T23:03:57.217Z,11.40
2022-10-16T23:06:25.683Z,11.40
2022-10-16T23:08:54.552Z,11.48
2022-10-16T23:11:23.356Z,11.45
2022-10-16T23:13:53.738Z,10.88
2022-10-16T23:16:23.569Z,11.63
2022-10-16T23:18:52.279Z,11.68
2022-10-16T23:21:24.424Z,10.98
2022-10-16T23:23:54.363Z,10.68
2022-10-16T23:26:24.732Z,10.55
2022-10-16T23:28:56.413Z,11.30
2022-10-16T23:31:24.689Z,10.98
2022-10-16T23:33:52.781Z,11.23
2022-10-16T23:36:22.770Z,11.60
2022-10-16T23:38:51.640Z,11.05
2022-10-16T23:41:21.210Z,11.05
2022-10-16T23:43:51.516Z,11.48
2022-10-16T23:46:21.359Z,10.32
2022-10-16T23:48:49.551Z,10.68
2022-10-16T23:51:18.078Z,9.90
2022-10-16T23:53:46.324Z,9.88
2022-10-16T23:56:15.068Z,9.45
2022-10-16T23:58:43.962Z,9.77
